Decoded Metar for RPVM (MASBATE in PHILIPPINES) (IATA:NOP) | Meteo·Mobile Aviation Weather
aviador You're here:

RPVM Decoded Metar

MASBATE in PHILIPPINES
Report Time2019-07-16 22:00:00
UTC Time2019-07-16 22:20:04
Flight Rules vfr VFR
Wind240° at 09 kt
W.Decomp.*RWY 22: 8.4 kt HW 3.2 kt RCW
Visibility9999 m
Phenomena:N/A
Clouds:Few 020 Hf
Overcast 100 Hf
Expected CloudBase > 2,000 ft AGL from Temp-Dew spread
Ceiling10,000 ft
Temp27°C (ISA +12)
Dew Point22°C (74% RH)
Heat Index29.2°C
QNH1005 hPa
Density Alt2,041 ft
Elevation33 ft
Report Wrong Elevation
Raw Report
METAR RPVM 162200Z 24009KT 9999 FEW020 OVC100 27/22 Q1005 NOSIG RMK
A2968=

Extra information for RPVM:More info

Metar Taf Metar & Taf Last 4 Metars F.Rules Stats Wind Profile Meteogram Temp Stats Airport Information Weather charts Add Link Nearby VenuesMetar ALERT Operation Metar Decoded Social comments